Royal Clipper — 9HA2796 — position and weather

sailwx.info

Track history (hours):
 
Tides and Currents Weather Stations Pressure Air Temp Water Temp Dewpoint Dewpoint Depression Visibility Wind Speed Wind Dir Waves Ship Positions

Royal Clipper

Last reported at 2017-Oct-21 21:38 UTC. Time now 2017-Oct-22 19:17 UTC.
Position N 43°20' E 007°11'.

Length 137 m; draft 6 m.

Type: Ship. MMSI: 215813000.

Date/timePositionNaut miles runAvg speedWind from/ knotsBaromVisibWave heightAir tempDewpointWater temp
2017-Oct-21 21:38N 43°20' E 007°11'210.0
2017-Oct-21 21:28N 43°22' E 007°09'510.0
2017-Oct-21 20:59N 43°25' E 007°05'510.0
2017-Oct-21 20:30N 43°29' E 007°02'3 6.0
2017-Oct-21 20:00N 43°32' E 007°01'0 0.3
2017-Oct-21 19:29N 43°32' E 007°01'0 0.1
2017-Oct-21 18:53N 43°32' E 007°01'0 0.0
2017-Oct-21 18:23N 43°32' E 007°01'0 0.1
2017-Oct-21 17:59N 43°32' E 007°01'0 0.0
2017-Oct-21 17:23N 43°32' E 007°01'0 0.0
2017-Oct-21 16:56N 43°32' E 007°01'0 0.1
2017-Oct-21 16:29N 43°32' E 007°01'0 0.0
2017-Oct-21 15:59N 43°32' E 007°01'0 0.0
2017-Oct-21 15:29N 43°32' E 007°01'0 0.1
2017-Oct-21 14:59N 43°32' E 007°01'0 0.1
2017-Oct-21 14:29N 43°32' E 007°01'0 0.0
2017-Oct-21 13:29N 43°32' E 007°01'0 0.0
2017-Oct-21 12:59N 43°32' E 007°01'0 0.0
2017-Oct-21 12:26N 43°32' E 007°01'0 0.0
2017-Oct-21 11:59N 43°32' E 007°01'0 0.0
2017-Oct-21 11:29N 43°32' E 007°01'0 0.0
2017-Oct-21 10:56N 43°32' E 007°01'0 0.0
2017-Oct-21 10:29N 43°32' E 007°01'0 0.1
2017-Oct-21 09:29N 43°32' E 007°01'0 0.0
2017-Oct-21 08:59N 43°32' E 007°01'0 0.0
2017-Oct-21 08:29N 43°32' E 007°01'0 0.0
2017-Oct-21 07:59N 43°32' E 007°01'0 0.0
2017-Oct-21 07:29N 43°32' E 007°01'0 0.0
2017-Oct-21 06:56N 43°32' E 007°01'0 0.0
2017-Oct-21 06:29N 43°32' E 007°01'0 0.0
2017-Oct-21 05:59N 43°32' E 007°01'0 0.0
2017-Oct-21 05:26N 43°32' E 007°01'0 0.0
2017-Oct-21 04:59N 43°32' E 007°01'1 2.6
2017-Oct-21 04:30N 43°31' E 007°01'3 6.5
2017-Oct-21 04:00N 43°29' E 007°05'5 8.6
2017-Oct-21 03:29N 43°30' E 007°11'5 8.3
2017-Oct-21 02:55N 43°32' E 007°17'1 3.0
2017-Oct-21 02:28N 43°32' E 007°19'2 1.1
2017-Oct-21 00:30N 43°34' E 007°21'3 4.5
2017-Oct-20 23:52N 43°37' E 007°22'  
2017-Oct-17 23:53N 41°16' E 008°37'52 2.4
2017-Oct-17 02:28N 41°47' E 009°33'11 8.5
2017-Oct-17 01:10N 41°57' E 009°38'8 8.7
2017-Oct-17 00:18N 42°04' E 009°41'3 8.7
2017-Oct-17 00:00N 42°07' E 009°42'5 8.6
2017-Oct-16 23:27N 42°11' E 009°45'15 8.5
2017-Oct-16 21:41N 42°25' E 009°52'2 8.1
2017-Oct-16 21:25N 42°27' E 009°53'4 8.3
2017-Oct-16 20:57N 42°31' E 009°54'16 9.7
2017-Oct-16 19:18N 42°46' E 010°02'6 9.4
2017-Oct-16 18:38N 42°51' E 010°07'1 9.3
2017-Oct-16 18:29N 42°51' E 010°09'5 9.2
2017-Oct-16 17:59N 42°52' E 010°15'2 4.2
2017-Oct-16 17:30N 42°51' E 010°18'2 3.7
2017-Oct-16 17:00N 42°50' E 010°20'1 2.8
2017-Oct-16 16:29N 42°49' E 010°20'1 0.7
2017-Oct-16 15:41N 42°49' E 010°20'0 0.0
2017-Oct-16 15:29N 42°49' E 010°20'0 0.0
2017-Oct-16 14:59N 42°49' E 010°20'0 0.0
2017-Oct-16 13:59N 42°49' E 010°20'0 0.0
2017-Oct-16 09:50N 42°49' E 010°20'0 0.0
2017-Oct-16 07:59N 42°49' E 010°20'0 0.0
2017-Oct-16 07:29N 42°49' E 010°20'0 0.0
2017-Oct-16 06:54N 42°49' E 010°20'0 0.1
2017-Oct-16 06:29N 42°49' E 010°20'29 6.8
2017-Oct-16 02:10N 43°17' E 010°09'1 8.8
2017-Oct-16 02:00N 43°18' E 010°08'4 8.5
2017-Oct-16 01:30N 43°22' E 010°06'4 8.4
2017-Oct-16 01:01N 43°26' E 010°05'4 8.4
2017-Oct-16 00:30N 43°31' E 010°03'4 8.5
2017-Oct-16 00:00N 43°35' E 010°03'4 8.6
2017-Oct-15 23:31N 43°39' E 010°03'4 8.5
2017-Oct-15 23:00N 43°43' E 010°03'4 8.5
2017-Oct-15 22:31N 43°48' E 010°03'4 8.5
2017-Oct-15 22:00N 43°52' E 010°03'4 8.4
2017-Oct-15 21:31N 43°56' E 010°03'5 8.3
2017-Oct-15 20:57N 43°60' E 009°59'3 7.4
2017-Oct-15 20:31N 44°02' E 009°56'3 5.1
2017-Oct-15 20:01N 44°04' E 009°54'0 0.1
2017-Oct-15 19:29N 44°04' E 009°53'0 0.0
2017-Oct-15 18:56N 44°04' E 009°53'0 0.0
2017-Oct-15 18:29N 44°04' E 009°53'0 0.0
2017-Oct-15 17:59N 44°04' E 009°53'0 0.0
2017-Oct-15 17:28N 44°04' E 009°53'0 0.0
2017-Oct-15 16:53N 44°04' E 009°53'0 0.0
2017-Oct-15 16:29N 44°04' E 009°53'0 0.0
2017-Oct-15 15:53N 44°04' E 009°53'0 0.0
2017-Oct-15 15:25N 44°04' E 009°53'0 0.0
2017-Oct-15 14:55N 44°04' E 009°53'0 0.0
2017-Oct-15 13:59N 44°04' E 009°53'0 0.0
2017-Oct-15 13:29N 44°04' E 009°53'0 0.0
2017-Oct-15 12:59N 44°04' E 009°53'0 0.0
2017-Oct-15 12:28N 44°04' E 009°53'0 0.0
2017-Oct-15 11:59N 44°04' E 009°53'0 0.0
2017-Oct-15 11:28N 44°04' E 009°53'0 0.0
2017-Oct-15 10:59N 44°04' E 009°53'0 0.0
2017-Oct-15 10:28N 44°04' E 009°53'0 0.2
2017-Oct-15 10:00N 44°04' E 009°54'4 7.7
2017-Oct-15 09:30N 44°01' E 009°58'510.5
2017-Oct-15 09:00N 43°57' E 009°54'510.3
2017-Oct-15 08:30N 43°54' E 009°48'510.7
2017-Oct-15 08:00N 43°53' E 009°41'510.9
2017-Oct-15 07:30N 43°51' E 009°34'611.2
2017-Oct-15 07:00N 43°50' E 009°26'611.0
2017-Oct-15 06:30N 43°49' E 009°18'510.9
2017-Oct-15 06:00N 43°48' E 009°11'510.8
2017-Oct-15 05:30N 43°47' E 009°04'510.9
2017-Oct-15 05:00N 43°46' E 008°57'611.0
2017-Oct-15 04:30N 43°45' E 008°49'611.0
2017-Oct-15 04:00N 43°43' E 008°41'810.8
2017-Oct-15 03:16N 43°42' E 008°31'6010.4
2017-Oct-14 21:31N 43°30' E 007°10'110.2
2017-Oct-14 21:28N 43°30' E 007°09'5 9.4
2017-Oct-14 20:59N 43°30' E 007°03'2 3.8
2017-Oct-14 20:30N 43°31' E 007°01'1 2.7
2017-Oct-14 20:00N 43°32' E 007°01'0 0.1
2017-Oct-14 19:29N 43°32' E 007°01'0 0.0
2017-Oct-14 18:58N 43°32' E 007°01'0 0.0
2017-Oct-14 18:28N 43°32' E 007°01'0 0.0
2017-Oct-14 17:59N 43°32' E 007°01'0 0.0
2017-Oct-14 17:29N 43°32' E 007°01'0 0.0
2017-Oct-14 16:59N 43°32' E 007°01'0 0.0
2017-Oct-14 16:29N 43°32' E 007°01'0 0.0
2017-Oct-14 15:59N 43°32' E 007°01'0 0.0
2017-Oct-14 15:29N 43°32' E 007°01'0 0.0
2017-Oct-14 14:58N 43°32' E 007°01'0 0.0
2017-Oct-14 14:23N 43°32' E 007°01'0 0.0
2017-Oct-14 13:56N 43°32' E 007°01'0 0.0
2017-Oct-14 13:29N 43°32' E 007°01'0 0.0
2017-Oct-14 12:58N 43°32' E 007°01'0 0.0
2017-Oct-14 12:29N 43°32' E 007°01'0 0.0
2017-Oct-14 11:59N 43°32' E 007°01'0 0.0
2017-Oct-14 11:29N 43°32' E 007°01'0 0.0
2017-Oct-14 10:59N 43°32' E 007°01'0 0.0
2017-Oct-14 10:29N 43°32' E 007°01'0 0.0
2017-Oct-14 09:59N 43°32' E 007°01'0 0.0
2017-Oct-14 09:29N 43°32' E 007°01'0 0.0
2017-Oct-14 08:59N 43°32' E 007°01'0 0.0
2017-Oct-14 08:29N 43°32' E 007°01'0 0.0
2017-Oct-14 07:59N 43°32' E 007°01'0 0.0
2017-Oct-14 07:29N 43°32' E 007°01'0 0.0
2017-Oct-14 06:59N 43°32' E 007°01'0 0.0
2017-Oct-14 06:29N 43°32' E 007°01'0 0.0
2017-Oct-14 05:59N 43°32' E 007°01'0 0.0
2017-Oct-14 05:29N 43°32' E 007°01'0 0.1
2017-Oct-14 04:53N 43°32' E 007°01'2 4.3
2017-Oct-14 04:30N 43°31' E 007°00'4 7.5
2017-Oct-14 04:00N 43°27' E 006°58'58 2.0
2017-Oct-12 22:49N 43°03' E 005°47'4 0.9
2017-Oct-12 18:48N 43°06' E 005°47'0 0.0
2017-Oct-12 18:30N 43°06' E 005°47'0 0.0
2017-Oct-12 17:57N 43°06' E 005°47'0 0.0
2017-Oct-12 17:30N 43°06' E 005°47'0 0.0
2017-Oct-12 17:00N 43°06' E 005°47'0 0.0
2017-Oct-12 16:30N 43°06' E 005°47'5 1.4
2017-Oct-12 12:59N 43°02' E 005°49'4 8.5
2017-Oct-12 12:30N 43°01' E 005°55'62 5.1
2017-Oct-12 00:14N 42°39' E 007°14'4 9.5
2017-Oct-11 23:50N 42°37' E 007°19'3 9.4
2017-Oct-11 23:30N 42°35' E 007°23'  
Track history (hours):
 
Tides and Currents Weather Stations Pressure Air Temp Water Temp Dewpoint Dewpoint Depression Visibility Wind Speed Wind Dir Waves Ship Positions

Royal Clipper

Last reported at 2017-Oct-21 21:38 UTC. Time now 2017-Oct-22 19:17 UTC.
Position N 43°20' E 007°11'.

Length 137 m; draft 6 m.

Type: Ship. MMSI: 215813000.

Date/timePositionNaut miles runAvg speedWind from/ knotsBaromVisibWave heightAir tempDewpointWater temp
2017-Oct-21 21:38N 43°20' E 007°11'210.0
2017-Oct-21 21:28N 43°22' E 007°09'510.0
2017-Oct-21 20:59N 43°25' E 007°05'510.0
2017-Oct-21 20:30N 43°29' E 007°02'3 6.0
2017-Oct-21 20:00N 43°32' E 007°01'0 0.3
2017-Oct-21 19:29N 43°32' E 007°01'0 0.1
2017-Oct-21 18:53N 43°32' E 007°01'0 0.0
2017-Oct-21 18:23N 43°32' E 007°01'0 0.1
2017-Oct-21 17:59N 43°32' E 007°01'0 0.0
2017-Oct-21 17:23N 43°32' E 007°01'0 0.0
2017-Oct-21 16:56N 43°32' E 007°01'0 0.1
2017-Oct-21 16:29N 43°32' E 007°01'0 0.0
2017-Oct-21 15:59N 43°32' E 007°01'0 0.0
2017-Oct-21 15:29N 43°32' E 007°01'0 0.1
2017-Oct-21 14:59N 43°32' E 007°01'0 0.1
2017-Oct-21 14:29N 43°32' E 007°01'0 0.0
2017-Oct-21 13:29N 43°32' E 007°01'0 0.0
2017-Oct-21 12:59N 43°32' E 007°01'0 0.0
2017-Oct-21 12:26N 43°32' E 007°01'0 0.0
2017-Oct-21 11:59N 43°32' E 007°01'0 0.0
2017-Oct-21 11:29N 43°32' E 007°01'0 0.0
2017-Oct-21 10:56N 43°32' E 007°01'0 0.0
2017-Oct-21 10:29N 43°32' E 007°01'0 0.1
2017-Oct-21 09:29N 43°32' E 007°01'0 0.0
2017-Oct-21 08:59N 43°32' E 007°01'0 0.0
2017-Oct-21 08:29N 43°32' E 007°01'0 0.0
2017-Oct-21 07:59N 43°32' E 007°01'0 0.0
2017-Oct-21 07:29N 43°32' E 007°01'0 0.0
2017-Oct-21 06:56N 43°32' E 007°01'0 0.0
2017-Oct-21 06:29N 43°32' E 007°01'0 0.0
2017-Oct-21 05:59N 43°32' E 007°01'0 0.0
2017-Oct-21 05:26N 43°32' E 007°01'0 0.0
2017-Oct-21 04:59N 43°32' E 007°01'1 2.6
2017-Oct-21 04:30N 43°31' E 007°01'3 6.5
2017-Oct-21 04:00N 43°29' E 007°05'5 8.6
2017-Oct-21 03:29N 43°30' E 007°11'5 8.3
2017-Oct-21 02:55N 43°32' E 007°17'1 3.0
2017-Oct-21 02:28N 43°32' E 007°19'2 1.1
2017-Oct-21 00:30N 43°34' E 007°21'3 4.5
2017-Oct-20 23:52N 43°37' E 007°22'  
2017-Oct-17 23:53N 41°16' E 008°37'52 2.4
2017-Oct-17 02:28N 41°47' E 009°33'11 8.5
2017-Oct-17 01:10N 41°57' E 009°38'8 8.7
2017-Oct-17 00:18N 42°04' E 009°41'3 8.7
2017-Oct-17 00:00N 42°07' E 009°42'5 8.6
2017-Oct-16 23:27N 42°11' E 009°45'15 8.5
2017-Oct-16 21:41N 42°25' E 009°52'2 8.1
2017-Oct-16 21:25N 42°27' E 009°53'4 8.3
2017-Oct-16 20:57N 42°31' E 009°54'16 9.7
2017-Oct-16 19:18N 42°46' E 010°02'6 9.4
2017-Oct-16 18:38N 42°51' E 010°07'1 9.3
2017-Oct-16 18:29N 42°51' E 010°09'5 9.2
2017-Oct-16 17:59N 42°52' E 010°15'2 4.2
2017-Oct-16 17:30N 42°51' E 010°18'2 3.7
2017-Oct-16 17:00N 42°50' E 010°20'1 2.8
2017-Oct-16 16:29N 42°49' E 010°20'1 0.7
2017-Oct-16 15:41N 42°49' E 010°20'0 0.0
2017-Oct-16 15:29N 42°49' E 010°20'0 0.0
2017-Oct-16 14:59N 42°49' E 010°20'0 0.0
2017-Oct-16 13:59N 42°49' E 010°20'0 0.0
2017-Oct-16 09:50N 42°49' E 010°20'0 0.0
2017-Oct-16 07:59N 42°49' E 010°20'0 0.0
2017-Oct-16 07:29N 42°49' E 010°20'0 0.0
2017-Oct-16 06:54N 42°49' E 010°20'0 0.1
2017-Oct-16 06:29N 42°49' E 010°20'29 6.8
2017-Oct-16 02:10N 43°17' E 010°09'1 8.8
2017-Oct-16 02:00N 43°18' E 010°08'4 8.5
2017-Oct-16 01:30N 43°22' E 010°06'4 8.4
2017-Oct-16 01:01N 43°26' E 010°05'4 8.4
2017-Oct-16 00:30N 43°31' E 010°03'4 8.5
2017-Oct-16 00:00N 43°35' E 010°03'4 8.6
2017-Oct-15 23:31N 43°39' E 010°03'4 8.5
2017-Oct-15 23:00N 43°43' E 010°03'4 8.5
2017-Oct-15 22:31N 43°48' E 010°03'4 8.5
2017-Oct-15 22:00N 43°52' E 010°03'4 8.4
2017-Oct-15 21:31N 43°56' E 010°03'5 8.3
2017-Oct-15 20:57N 43°60' E 009°59'3 7.4
2017-Oct-15 20:31N 44°02' E 009°56'3 5.1
2017-Oct-15 20:01N 44°04' E 009°54'0 0.1
2017-Oct-15 19:29N 44°04' E 009°53'0 0.0
2017-Oct-15 18:56N 44°04' E 009°53'0 0.0
2017-Oct-15 18:29N 44°04' E 009°53'0 0.0
2017-Oct-15 17:59N 44°04' E 009°53'0 0.0
2017-Oct-15 17:28N 44°04' E 009°53'0 0.0
2017-Oct-15 16:53N 44°04' E 009°53'0 0.0
2017-Oct-15 16:29N 44°04' E 009°53'0 0.0
2017-Oct-15 15:53N 44°04' E 009°53'0 0.0
2017-Oct-15 15:25N 44°04' E 009°53'0 0.0
2017-Oct-15 14:55N 44°04' E 009°53'0 0.0
2017-Oct-15 13:59N 44°04' E 009°53'0 0.0
2017-Oct-15 13:29N 44°04' E 009°53'0 0.0
2017-Oct-15 12:59N 44°04' E 009°53'0 0.0
2017-Oct-15 12:28N 44°04' E 009°53'0 0.0
2017-Oct-15 11:59N 44°04' E 009°53'0 0.0
2017-Oct-15 11:28N 44°04' E 009°53'0 0.0
2017-Oct-15 10:59N 44°04' E 009°53'0 0.0
2017-Oct-15 10:28N 44°04' E 009°53'0 0.2
2017-Oct-15 10:00N 44°04' E 009°54'4 7.7
2017-Oct-15 09:30N 44°01' E 009°58'510.5
2017-Oct-15 09:00N 43°57' E 009°54'510.3
2017-Oct-15 08:30N 43°54' E 009°48'510.7
2017-Oct-15 08:00N 43°53' E 009°41'510.9
2017-Oct-15 07:30N 43°51' E 009°34'611.2
2017-Oct-15 07:00N 43°50' E 009°26'611.0
2017-Oct-15 06:30N 43°49' E 009°18'510.9
2017-Oct-15 06:00N 43°48' E 009°11'510.8
2017-Oct-15 05:30N 43°47' E 009°04'510.9
2017-Oct-15 05:00N 43°46' E 008°57'611.0
2017-Oct-15 04:30N 43°45' E 008°49'611.0
2017-Oct-15 04:00N 43°43' E 008°41'810.8
2017-Oct-15 03:16N 43°42' E 008°31'6010.4
2017-Oct-14 21:31N 43°30' E 007°10'110.2
2017-Oct-14 21:28N 43°30' E 007°09'5 9.4
2017-Oct-14 20:59N 43°30' E 007°03'2 3.8
2017-Oct-14 20:30N 43°31' E 007°01'1 2.7
2017-Oct-14 20:00N 43°32' E 007°01'0 0.1
2017-Oct-14 19:29N 43°32' E 007°01'0 0.0
2017-Oct-14 18:58N 43°32' E 007°01'0 0.0
2017-Oct-14 18:28N 43°32' E 007°01'0 0.0
2017-Oct-14 17:59N 43°32' E 007°01'0 0.0
2017-Oct-14 17:29N 43°32' E 007°01'0 0.0
2017-Oct-14 16:59N 43°32' E 007°01'0 0.0
2017-Oct-14 16:29N 43°32' E 007°01'0 0.0
2017-Oct-14 15:59N 43°32' E 007°01'0 0.0
2017-Oct-14 15:29N 43°32' E 007°01'0 0.0
2017-Oct-14 14:58N 43°32' E 007°01'0 0.0
2017-Oct-14 14:23N 43°32' E 007°01'0 0.0
2017-Oct-14 13:56N 43°32' E 007°01'0 0.0
2017-Oct-14 13:29N 43°32' E 007°01'0 0.0
2017-Oct-14 12:58N 43°32' E 007°01'0 0.0
2017-Oct-14 12:29N 43°32' E 007°01'0 0.0
2017-Oct-14 11:59N 43°32' E 007°01'0 0.0
2017-Oct-14 11:29N 43°32' E 007°01'0 0.0
2017-Oct-14 10:59N 43°32' E 007°01'0 0.0
2017-Oct-14 10:29N 43°32' E 007°01'0 0.0
2017-Oct-14 09:59N 43°32' E 007°01'0 0.0
2017-Oct-14 09:29N 43°32' E 007°01'0 0.0
2017-Oct-14 08:59N 43°32' E 007°01'0 0.0
2017-Oct-14 08:29N 43°32' E 007°01'0 0.0
2017-Oct-14 07:59N 43°32' E 007°01'0 0.0
2017-Oct-14 07:29N 43°32' E 007°01'0 0.0
2017-Oct-14 06:59N 43°32' E 007°01'0 0.0
2017-Oct-14 06:29N 43°32' E 007°01'0 0.0
2017-Oct-14 05:59N 43°32' E 007°01'0 0.0
2017-Oct-14 05:29N 43°32' E 007°01'0 0.1
2017-Oct-14 04:53N 43°32' E 007°01'2 4.3
2017-Oct-14 04:30N 43°31' E 007°00'4 7.5
2017-Oct-14 04:00N 43°27' E 006°58'58 2.0
2017-Oct-12 22:49N 43°03' E 005°47'4 0.9
2017-Oct-12 18:48N 43°06' E 005°47'0 0.0
2017-Oct-12 18:30N 43°06' E 005°47'0 0.0
2017-Oct-12 17:57N 43°06' E 005°47'0 0.0
2017-Oct-12 17:30N 43°06' E 005°47'0 0.0
2017-Oct-12 17:00N 43°06' E 005°47'0 0.0
2017-Oct-12 16:30N 43°06' E 005°47'5 1.4
2017-Oct-12 12:59N 43°02' E 005°49'4 8.5
2017-Oct-12 12:30N 43°01' E 005°55'62 5.1
2017-Oct-12 00:14N 42°39' E 007°14'4 9.5
2017-Oct-11 23:50N 42°37' E 007°19'3 9.4
2017-Oct-11 23:30N 42°35' E 007°23'  

Dump ship's entire track history